Time;durP1;ratioP1;P1;durP2;ratioP2;P2;SDS_P1;SDS_P2;PMS_P1;PMS_P2;Temp;Humidity;BMP_temperature;BMP_pressure;BME280_temperature;BME280_humidity;BME280_pressure;Samples;Min_cycle;Max_cycle;Signal;HPM_P1;HPM_P2
2022/07/07 00:02:11;;;;;;;7.40;3.15;;;18.50;99.90;;;;;;5052812;28;20036;-67
2022/07/07 00:04:36;;;;;;;8.45;2.85;;;18.50;99.90;;;;;;5052863;28;20483;-67
2022/07/07 00:07:03;;;;;;;11.32;3.30;;;18.50;99.90;;;;;;5054746;28;20045;-67
2022/07/07 00:09:30;;;;;;;6.03;3.25;;;18.50;99.90;;;;;;5052747;28;20063;-68
2022/07/07 00:11:57;;;;;;;9.23;3.35;;;18.50;99.90;;;;;;5052488;28;20025;-68
2022/07/07 00:14:22;;;;;;;8.10;3.10;;;18.40;99.90;;;;;;5052742;28;20024;-68
2022/07/07 00:16:48;;;;;;;6.75;3.22;;;18.40;99.90;;;;;;5052801;28;20399;-67
2022/07/07 00:19:13;;;;;;;5.47;3.22;;;18.40;99.90;;;;;;5052611;28;20057;-68
2022/07/07 00:21:39;;;;;;;5.28;3.38;;;18.40;99.90;;;;;;5063900;28;20032;-68
2022/07/07 00:24:05;;;;;;;9.57;3.13;;;18.40;99.90;;;;;;5071393;28;20036;-67
2022/07/07 00:26:31;;;;;;;8.27;3.75;;;18.40;99.90;;;;;;5072483;28;20074;-67
2022/07/07 00:28:57;;;;;;;6.50;3.63;;;18.40;99.90;;;;;;5072608;28;20028;-67
2022/07/07 00:31:23;;;;;;;9.73;2.90;;;18.40;99.90;;;;;;5072317;28;20029;-67
2022/07/07 00:33:49;;;;;;;10.07;3.50;;;18.40;99.90;;;;;;5071893;28;20100;-68
2022/07/07 00:36:14;;;;;;;8.25;2.95;;;18.30;99.90;;;;;;5061477;28;20113;-68
2022/07/07 00:38:40;;;;;;;6.75;3.85;;;18.30;99.90;;;;;;5051161;28;20025;-67
2022/07/07 00:41:06;;;;;;;7.28;3.20;;;18.30;99.90;;;;;;5052294;28;20032;-68
2022/07/07 00:43:36;;;;;;;11.60;3.72;;;18.30;99.90;;;;;;5051825;28;20032;-67
2022/07/07 00:46:03;;;;;;;7.05;3.80;;;18.30;99.90;;;;;;5052673;28;20086;-68
2022/07/07 00:48:28;;;;;;;5.72;3.40;;;18.30;99.90;;;;;;5052026;28;20021;-68
2022/07/07 00:50:54;;;;;;;4.25;3.40;;;18.30;99.90;;;;;;5054154;28;20513;-68
2022/07/07 00:53:19;;;;;;;8.88;3.22;;;18.30;99.90;;;;;;5052333;28;20417;-66
2022/07/07 00:55:45;;;;;;;6.55;3.40;;;18.30;99.90;;;;;;5053183;28;20100;-68
2022/07/07 00:58:11;;;;;;;10.15;4.03;;;18.20;99.90;;;;;;5052111;28;20394;-67
2022/07/07 01:00:36;;;;;;;14.45;3.65;;;18.20;99.90;;;;;;5052110;28;20029;-68
2022/07/07 01:03:02;;;;;;;11.35;3.45;;;18.20;99.90;;;;;;5051634;28;20446;-67
2022/07/07 01:05:30;;;;;;;5.20;2.55;;;18.20;99.90;;;;;;5051988;28;20524;-67
2022/07/07 01:07:56;;;;;;;14.90;3.67;;;18.20;99.90;;;;;;5052268;28;20052;-67
2022/07/07 01:10:22;;;;;;;8.00;4.07;;;18.20;99.90;;;;;;5071629;28;20017;-67
2022/07/07 01:12:47;;;;;;;7.78;4.35;;;18.20;99.90;;;;;;5071499;28;20025;-67
2022/07/07 01:15:13;;;;;;;11.13;3.78;;;18.20;99.90;;;;;;5071656;28;20032;-68
2022/07/07 01:17:40;;;;;;;10.32;3.13;;;18.20;99.90;;;;;;5071401;28;20563;-67
2022/07/07 01:20:08;;;;;;;4.45;2.67;;;18.20;99.90;;;;;;5071879;28;20479;-68
2022/07/07 01:22:35;;;;;;;9.32;3.40;;;18.20;99.90;;;;;;5069534;28;20522;-67
2022/07/07 01:25:02;;;;;;;5.75;3.17;;;18.20;99.90;;;;;;5070031;28;20028;-68
2022/07/07 01:27:27;;;;;;;6.93;3.45;;;18.20;99.90;;;;;;5071438;28;20475;-68
2022/07/07 01:29:56;;;;;;;6.35;3.53;;;18.20;99.90;;;;;;5071346;28;20044;-68
2022/07/07 01:32:23;;;;;;;6.43;3.28;;;18.30;99.90;;;;;;5067336;28;20039;-68
2022/07/07 01:34:50;;;;;;;8.30;3.47;;;18.20;99.90;;;;;;5050848;28;20044;-68
2022/07/07 01:37:17;;;;;;;5.85;2.75;;;18.30;99.90;;;;;;5051372;28;20467;-68
2022/07/07 01:39:43;;;;;;;6.28;3.45;;;18.30;99.90;;;;;;5051192;28;20133;-68
2022/07/07 01:42:09;;;;;;;10.82;3.03;;;18.30;99.90;;;;;;5053445;28;20094;-68
2022/07/07 01:44:37;;;;;;;5.63;3.45;;;18.20;99.90;;;;;;5050917;28;20420;-68
2022/07/07 01:47:04;;;;;;;10.18;3.17;;;18.20;99.90;;;;;;5051461;28;20180;-69
2022/07/07 01:49:32;;;;;;;7.95;3.10;;;18.30;99.90;;;;;;5050021;28;20021;-67
2022/07/07 01:51:58;;;;;;;7.88;3.50;;;18.20;99.90;;;;;;5049179;28;20036;-68
2022/07/07 01:54:29;;;;;;;8.25;3.58;;;18.20;99.90;;;;;;5050785;28;20045;-68
2022/07/07 01:56:55;;;;;;;7.25;3.75;;;18.20;99.90;;;;;;5051261;28;20017;-68
2022/07/07 01:59:20;;;;;;;7.53;3.55;;;18.20;99.90;;;;;;5050324;28;20024;-67
2022/07/07 02:01:46;;;;;;;8.15;3.53;;;18.20;99.90;;;;;;5051757;28;20036;-68
2022/07/07 02:04:11;;;;;;;4.80;3.30;;;18.20;99.90;;;;;;5050809;28;20371;-68
2022/07/07 02:06:38;;;;;;;3.42;2.95;;;18.10;99.90;;;;;;5050772;28;20079;-68
2022/07/07 02:09:05;;;;;;;7.43;4.18;;;18.10;99.90;;;;;;5055525;28;20150;-68
2022/07/07 02:11:30;;;;;;;7.60;3.45;;;18.10;99.90;;;;;;5070232;28;20035;-68
2022/07/07 02:13:56;;;;;;;10.88;3.20;;;18.10;99.90;;;;;;5069747;28;20457;-68
2022/07/07 02:16:24;;;;;;;8.73;3.55;;;18.10;99.90;;;;;;5050764;28;20032;-68
2022/07/07 02:18:53;;;;;;;7.07;3.05;;;18.20;99.90;;;;;;5050390;28;20024;-67
2022/07/07 02:21:19;;;;;;;8.45;4.03;;;18.20;99.90;;;;;;5050307;28;20045;-68
2022/07/07 02:23:47;;;;;;;7.00;3.67;;;18.20;99.90;;;;;;5050334;28;20075;-68
2022/07/07 02:26:12;;;;;;;5.93;3.50;;;18.10;99.90;;;;;;5050440;28;20109;-67
2022/07/07 02:28:39;;;;;;;6.53;3.63;;;18.00;99.90;;;;;;5050582;28;20096;-67
2022/07/07 02:31:05;;;;;;;15.43;4.00;;;18.00;99.90;;;;;;5057341;28;20029;-68
2022/07/07 02:33:31;;;;;;;5.65;3.45;;;17.90;99.90;;;;;;5070093;28;20028;-67
2022/07/07 02:35:57;;;;;;;9.82;4.10;;;17.90;99.90;;;;;;5070831;28;20051;-67
2022/07/07 02:38:23;;;;;;;6.45;4.10;;;17.80;99.90;;;;;;5069896;28;20021;-68
2022/07/07 02:40:50;;;;;;;6.88;4.50;;;17.80;99.90;;;;;;5070434;28;20122;-67
2022/07/07 02:43:16;;;;;;;13.38;5.65;;;17.80;99.90;;;;;;5064618;28;20434;-67
2022/07/07 02:45:43;;;;;;;9.32;4.65;;;17.60;99.90;;;;;;5050266;28;20122;-68
2022/07/07 02:48:10;;;;;;;7.65;4.97;;;17.60;99.90;;;;;;5050218;28;20483;-68
2022/07/07 02:50:37;;;;;;;11.60;4.78;;;17.60;99.90;;;;;;5049587;28;20106;-68
2022/07/07 02:53:03;;;;;;;9.55;5.20;;;17.60;99.90;;;;;;5049857;28;20024;-68
2022/07/07 02:55:30;;;;;;;7.97;4.93;;;17.60;99.90;;;;;;5050660;28;20029;-68
2022/07/07 02:57:59;;;;;;;6.90;4.65;;;17.60;99.90;;;;;;5050059;28;20025;-68
2022/07/07 03:00:26;;;;;;;5.97;4.57;;;17.60;99.90;;;;;;5050318;28;20023;-67
2022/07/07 03:02:55;;;;;;;9.48;4.95;;;17.60;99.90;;;;;;5057184;28;20024;-68
2022/07/07 03:05:21;;;;;;;11.02;5.18;;;17.60;99.90;;;;;;5074132;28;20418;-68
2022/07/07 03:07:47;;;;;;;7.72;4.05;;;17.60;99.90;;;;;;5072559;28;20021;-67
2022/07/07 03:10:13;;;;;;;10.93;4.85;;;17.60;99.90;;;;;;5073042;28;20029;-67
2022/07/07 03:12:39;;;;;;;14.02;4.97;;;17.60;99.90;;;;;;5073704;28;20029;-68
2022/07/07 03:15:05;;;;;;;6.30;3.90;;;17.70;99.90;;;;;;5073025;28;20410;-68
2022/07/07 03:17:31;;;;;;;6.03;4.05;;;17.80;99.90;;;;;;5073994;28;20021;-68
2022/07/07 03:19:56;;;;;;;7.93;3.88;;;17.80;99.90;;;;;;5073882;28;20074;-67
2022/07/07 03:22:22;;;;;;;10.65;4.15;;;17.80;99.90;;;;;;5070617;28;20082;-68
2022/07/07 03:24:47;;;;;;;5.82;3.90;;;17.80;99.90;;;;;;5073932;28;20025;-67
2022/07/07 03:27:13;;;;;;;9.38;3.85;;;17.80;99.90;;;;;;5073966;28;20020;-68
2022/07/07 03:29:38;;;;;;;6.55;3.70;;;17.90;99.90;;;;;;5073326;28;20039;-68
2022/07/07 03:32:05;;;;;;;6.93;3.85;;;17.90;99.90;;;;;;5073460;28;20566;-68
2022/07/07 03:34:31;;;;;;;7.15;3.50;;;17.90;99.90;;;;;;5073750;28;20115;-68
2022/07/07 03:36:56;;;;;;;8.05;4.28;;;17.90;99.90;;;;;;5065606;28;20013;-68
2022/07/07 03:39:22;;;;;;;12.93;4.07;;;17.90;99.90;;;;;;5053490;28;20032;-67
2022/07/07 03:41:48;;;;;;;5.85;3.38;;;17.90;99.90;;;;;;5053311;28;20036;-68
2022/07/07 03:44:13;;;;;;;10.77;3.60;;;18.00;99.90;;;;;;5053815;28;20438;-68
2022/07/07 03:46:39;;;;;;;5.13;3.50;;;18.00;99.90;;;;;;5055837;28;20402;-68
2022/07/07 03:49:04;;;;;;;10.13;3.55;;;18.00;99.90;;;;;;5053736;28;20029;-68
2022/07/07 03:51:30;;;;;;;4.70;3.30;;;18.00;99.90;;;;;;5053258;28;20108;-69
2022/07/07 03:53:55;;;;;;;6.10;3.28;;;18.00;99.90;;;;;;5053035;28;20021;-68
2022/07/07 03:56:21;;;;;;;6.60;3.78;;;18.00;99.90;;;;;;5053128;28;20025;-68
2022/07/07 03:58:46;;;;;;;4.47;2.92;;;18.00;99.90;;;;;;5053039;28;20021;-67
2022/07/07 04:01:12;;;;;;;7.72;2.97;;;18.00;99.90;;;;;;5053254;28;20032;-68
2022/07/07 04:03:37;;;;;;;5.40;2.88;;;18.10;99.90;;;;;;5052402;28;20061;-68
2022/07/07 04:06:04;;;;;;;4.10;2.55;;;18.10;99.90;;;;;;5064406;28;20044;-68
2022/07/07 04:08:30;;;;;;;4.82;2.50;;;18.20;99.90;;;;;;5073024;28;20028;-68
2022/07/07 04:10:55;;;;;;;6.45;3.08;;;18.20;99.90;;;;;;5072893;28;20478;-67
2022/07/07 04:13:21;;;;;;;3.53;2.42;;;18.20;99.90;;;;;;5101837;22;20467;-62
2022/07/07 04:15:47;;;;;;;7.28;2.63;;;18.30;99.90;;;;;;5091964;28;20027;-62
2022/07/07 04:18:12;;;;;;;5.63;2.67;;;18.30;99.90;;;;;;5092017;28;20028;-62
2022/07/07 04:20:38;;;;;;;5.63;2.40;;;18.30;99.90;;;;;;5091608;28;20069;-63
2022/07/07 04:23:03;;;;;;;4.25;2.55;;;18.30;99.90;;;;;;5091295;28;20028;-61
2022/07/07 04:25:29;;;;;;;4.60;2.97;;;18.30;99.90;;;;;;5091850;28;20497;-61
2022/07/07 04:27:54;;;;;;;10.57;3.10;;;18.40;99.90;;;;;;5091869;28;20032;-62
2022/07/07 04:30:20;;;;;;;3.58;2.97;;;18.30;99.90;;;;;;5091888;28;20039;-62
2022/07/07 04:32:45;;;;;;;4.40;2.97;;;18.20;99.90;;;;;;5091464;28;20035;-62
2022/07/07 04:35:11;;;;;;;6.22;2.78;;;18.20;99.90;;;;;;5091310;28;20032;-63
2022/07/07 04:37:36;;;;;;;8.15;3.20;;;18.20;99.90;;;;;;5091555;28;20024;-60
2022/07/07 04:40:03;;;;;;;9.43;2.60;;;18.20;99.90;;;;;;5091652;28;20112;-63
2022/07/07 04:42:29;;;;;;;4.60;2.50;;;18.20;99.90;;;;;;5091314;28;20035;-62
2022/07/07 04:44:55;;;;;;;4.22;2.20;;;18.10;99.90;;;;;;5091632;28;20043;-62
2022/07/07 04:47:21;;;;;;;4.40;2.80;;;18.20;99.90;;;;;;5091310;28;20034;-62
2022/07/07 04:49:47;;;;;;;4.82;2.67;;;18.10;99.90;;;;;;5091340;28;20432;-61
2022/07/07 04:52:12;;;;;;;6.07;2.58;;;18.10;99.90;;;;;;5091060;28;20276;-57
2022/07/07 04:54:38;;;;;;;7.18;2.63;;;18.10;99.90;;;;;;5090882;28;20032;-61
2022/07/07 04:57:04;;;;;;;3.30;2.15;;;18.20;99.90;;;;;;5091167;28;20106;-61
2022/07/07 04:59:29;;;;;;;3.65;2.05;;;18.10;99.90;;;;;;5091340;28;20016;-61
2022/07/07 05:01:55;;;;;;;3.67;2.25;;;18.20;99.90;;;;;;5090710;28;20036;-60
2022/07/07 05:04:20;;;;;;;4.15;2.42;;;18.30;99.90;;;;;;5090903;28;20024;-63
2022/07/07 05:06:46;;;;;;;4.82;2.33;;;18.20;99.90;;;;;;5090915;28;20058;-62
2022/07/07 05:09:12;;;;;;;4.15;2.65;;;18.20;99.90;;;;;;5090841;28;20851;-61
2022/07/07 05:11:37;;;;;;;7.88;2.63;;;18.20;99.90;;;;;;5090616;28;20414;-62
2022/07/07 05:14:03;;;;;;;2.90;2.50;;;18.10;99.90;;;;;;5090837;28;20417;-62
2022/07/07 05:16:30;;;;;;;3.70;2.20;;;18.10;99.90;;;;;;5090882;28;20020;-62
2022/07/07 05:18:56;;;;;;;4.07;2.85;;;18.20;99.90;;;;;;5089983;28;20093;-62
2022/07/07 05:21:21;;;;;;;5.03;2.80;;;18.20;99.90;;;;;;5089674;28;20067;-64
2022/07/07 05:23:47;;;;;;;6.70;2.38;;;18.10;99.90;;;;;;5089959;28;20097;-64
2022/07/07 05:26:13;;;;;;;3.45;2.20;;;18.20;99.90;;;;;;5090387;28;20032;-63
2022/07/07 05:28:41;;;;;;;8.38;2.75;;;18.20;99.90;;;;;;5090557;28;20028;-63
2022/07/07 05:31:12;;;;;;;7.25;2.75;;;18.20;99.90;;;;;;5090451;28;20034;-62
2022/07/07 05:33:38;;;;;;;3.90;2.72;;;18.20;99.90;;;;;;5089655;28;20020;-61
2022/07/07 05:36:05;;;;;;;6.45;2.53;;;18.20;99.90;;;;;;5090403;28;20020;-62
2022/07/07 05:38:31;;;;;;;4.38;2.25;;;18.30;99.90;;;;;;5090650;28;20032;-63
2022/07/07 05:40:57;;;;;;;4.13;2.28;;;18.30;99.90;;;;;;5089886;28;20103;-61
2022/07/07 05:43:23;;;;;;;14.38;3.30;;;18.30;99.90;;;;;;5089935;28;20107;-64
2022/07/07 05:45:48;;;;;;;8.50;2.88;;;18.30;99.90;;;;;;5090470;28;20024;-59
2022/07/07 05:48:14;;;;;;;7.38;2.50;;;18.40;99.90;;;;;;5089776;28;20085;-62
2022/07/07 05:50:40;;;;;;;5.60;2.63;;;18.40;99.90;;;;;;5090099;28;20434;-62
2022/07/07 05:53:05;;;;;;;6.15;2.63;;;18.40;99.90;;;;;;5086005;28;20028;-63
2022/07/07 05:55:31;;;;;;;6.97;2.65;;;18.40;99.90;;;;;;5090128;28;20427;-62
2022/07/07 05:57:57;;;;;;;6.07;2.60;;;18.30;99.90;;;;;;5089666;28;20389;-63
2022/07/07 06:00:24;;;;;;;7.95;2.88;;;18.40;99.90;;;;;;5089638;28;20123;-61
2022/07/07 06:02:50;;;;;;;12.10;3.33;;;18.20;99.90;;;;;;5088911;28;20039;-60
2022/07/07 06:05:16;;;;;;;6.55;3.40;;;18.20;99.90;;;;;;5089961;28;20024;-60
2022/07/07 06:07:42;;;;;;;9.52;3.65;;;18.10;99.90;;;;;;5089775;28;20107;-60
2022/07/07 06:10:10;;;;;;;10.77;4.15;;;18.10;99.90;;;;;;5089660;28;20084;-60
2022/07/07 06:12:36;;;;;;;8.40;3.97;;;17.90;99.90;;;;;;5089126;28;20103;-61
2022/07/07 06:15:01;;;;;;;9.68;4.15;;;17.80;99.90;;;;;;5089675;28;20111;-60
2022/07/07 06:17:27;;;;;;;12.82;5.05;;;17.80;99.90;;;;;;5089556;28;20024;-61
2022/07/07 06:19:52;;;;;;;14.27;5.20;;;17.60;99.90;;;;;;5090546;28;20069;-62
2022/07/07 06:22:18;;;;;;;10.20;5.30;;;17.50;99.90;;;;;;5089274;28;20128;-62
2022/07/07 06:24:43;;;;;;;11.85;5.63;;;17.40;99.90;;;;;;5089919;28;20051;-61
2022/07/07 06:27:09;;;;;;;10.00;5.88;;;17.20;99.90;;;;;;5090318;28;20167;-62
2022/07/07 06:29:35;;;;;;;10.40;5.55;;;17.00;99.90;;;;;;5089423;28;20054;-63
2022/07/07 06:32:00;;;;;;;9.98;6.20;;;16.90;99.90;;;;;;5089531;28;20020;-62
2022/07/07 06:34:26;;;;;;;11.60;4.90;;;16.80;99.90;;;;;;5089385;28;20497;-62
2022/07/07 06:36:51;;;;;;;7.47;4.85;;;16.70;99.90;;;;;;5089441;28;20417;-60
2022/07/07 06:39:17;;;;;;;8.40;5.55;;;16.60;99.90;;;;;;5090156;28;20127;-61
2022/07/07 06:41:42;;;;;;;10.50;5.70;;;16.70;99.90;;;;;;5089586;28;20677;-61
2022/07/07 06:44:12;;;;;;;6.95;5.15;;;16.70;99.90;;;;;;5089549;28;20043;-60
2022/07/07 06:46:39;;;;;;;12.07;5.88;;;16.80;99.90;;;;;;5089617;28;20089;-61
2022/07/07 06:49:05;;;;;;;10.05;6.35;;;16.80;99.90;;;;;;5089984;28;20028;-61
2022/07/07 06:51:31;;;;;;;8.02;6.60;;;16.90;99.90;;;;;;5089418;28;20034;-61
2022/07/07 06:53:57;;;;;;;11.88;7.45;;;16.90;99.90;;;;;;5089711;28;20020;-62
2022/07/07 06:56:22;;;;;;;10.18;7.72;;;16.80;99.90;;;;;;5089405;28;20020;-61
2022/07/07 06:58:48;;;;;;;14.10;8.30;;;16.80;99.90;;;;;;5089929;28;20038;-61
2022/07/07 07:01:14;;;;;;;13.20;9.02;;;16.90;99.90;;;;;;5089612;28;20026;-59
2022/07/07 07:03:39;;;;;;;11.65;8.65;;;16.90;99.90;;;;;;5089309;28;20032;-61
2022/07/07 07:06:05;;;;;;;13.05;8.15;;;16.90;99.90;;;;;;5089458;28;20020;-60
2022/07/07 07:08:31;;;;;;;13.45;8.45;;;16.90;99.90;;;;;;5089132;28;20028;-59
2022/07/07 07:10:56;;;;;;;10.52;8.13;;;16.90;99.90;;;;;;5089165;28;20028;-61
2022/07/07 07:13:22;;;;;;;11.50;7.75;;;16.90;99.90;;;;;;5089014;28;20032;-60
2022/07/07 07:15:47;;;;;;;10.85;7.70;;;16.90;99.90;;;;;;5089473;28;20024;-60
2022/07/07 07:18:13;;;;;;;13.98;8.05;;;16.90;99.90;;;;;;5089414;28;20043;-59
2022/07/07 07:20:40;;;;;;;10.05;7.60;;;17.00;99.90;;;;;;5089137;28;20028;-61
2022/07/07 07:23:06;;;;;;;7.47;6.15;;;17.10;99.90;;;;;;5088413;28;20482;-60
2022/07/07 07:25:32;;;;;;;6.70;5.65;;;17.10;99.90;;;;;;5089634;28;20028;-63
2022/07/07 07:27:57;;;;;;;9.57;5.80;;;17.20;99.90;;;;;;5089645;28;20024;-60
2022/07/07 07:30:23;;;;;;;9.40;6.03;;;17.30;99.90;;;;;;5089009;28;20028;-61
2022/07/07 07:32:49;;;;;;;6.95;5.63;;;17.30;99.90;;;;;;5088959;28;20058;-60
2022/07/07 07:35:15;;;;;;;9.70;5.95;;;17.30;99.90;;;;;;5089294;28;20016;-60
2022/07/07 07:37:41;;;;;;;8.07;4.43;;;17.30;99.90;;;;;;5089165;28;20080;-58
2022/07/07 07:40:08;;;;;;;5.70;4.22;;;17.40;99.90;;;;;;5089240;28;20032;-59
2022/07/07 07:42:34;;;;;;;3.78;3.35;;;17.50;99.90;;;;;;5088886;28;20033;-61
2022/07/07 07:45:09;;;;;;;3.78;2.97;;;17.60;99.90;;;;;;5089251;28;20051;-62
2022/07/07 07:47:35;;;;;;;2.40;2.20;;;17.60;99.90;;;;;;5090067;28;20077;-60
2022/07/07 07:50:00;;;;;;;1.35;1.17;;;17.60;99.90;;;;;;5093238;28;20059;-60
2022/07/07 07:52:26;;;;;;;2.42;1.63;;;17.40;99.90;;;;;;5091938;28;20673;-60
2022/07/07 07:54:52;;;;;;;2.05;1.50;;;17.40;99.90;;;;;;5078831;28;20508;-61
2022/07/07 07:57:18;;;;;;;3.08;1.45;;;17.40;99.90;;;;;;5086234;28;20131;-58
2022/07/07 07:59:44;;;;;;;1.33;1.23;;;17.50;99.90;;;;;;5092390;28;20052;-59
2022/07/07 08:02:09;;;;;;;10.27;2.15;;;17.50;99.90;;;;;;5092439;28;20060;-59
2022/07/07 08:04:35;;;;;;;2.55;1.52;;;17.50;99.90;;;;;;5093060;28;20024;-60
2022/07/07 08:07:00;;;;;;;4.07;1.70;;;17.70;99.90;;;;;;5092438;28;20058;-58
2022/07/07 08:09:27;;;;;;;1.83;1.60;;;17.70;99.90;;;;;;5092486;28;20035;-60
2022/07/07 08:11:52;;;;;;;12.80;1.80;;;17.70;99.90;;;;;;5092176;28;20035;-59
2022/07/07 08:14:18;;;;;;;4.25;1.40;;;17.70;99.90;;;;;;5092856;28;20028;-60
2022/07/07 08:16:44;;;;;;;2.13;1.23;;;17.50;99.90;;;;;;5092294;28;20066;-59
2022/07/07 08:19:09;;;;;;;0.73;0.73;;;17.20;99.90;;;;;;5092229;28;20290;-60
2022/07/07 08:21:35;;;;;;;2.83;1.10;;;16.80;99.90;;;;;;5091998;28;20028;-61
2022/07/07 08:24:01;;;;;;;4.93;1.00;;;16.70;99.90;;;;;;5091995;28;20099;-60
2022/07/07 08:26:26;;;;;;;0.95;0.82;;;16.60;99.90;;;;;;5091874;28;20397;-61
2022/07/07 08:28:52;;;;;;;3.72;1.38;;;16.70;99.90;;;;;;5091938;28;20032;-60
2022/07/07 08:31:18;;;;;;;2.50;1.25;;;16.70;99.90;;;;;;5091904;28;20036;-58
2022/07/07 08:33:43;;;;;;;3.35;1.20;;;16.80;99.90;;;;;;5091875;28;20343;-60
2022/07/07 08:36:09;;;;;;;1.38;1.27;;;16.90;99.90;;;;;;5091605;28;20032;-60
2022/07/07 08:38:34;;;;;;;2.88;1.52;;;17.00;99.90;;;;;;5091908;28;20031;-59
2022/07/07 08:41:00;;;;;;;3.63;1.65;;;17.20;99.90;;;;;;5091728;28;20027;-56
2022/07/07 08:43:25;;;;;;;2.15;1.13;;;17.30;99.90;;;;;;5091585;28;20375;-60
2022/07/07 08:45:53;;;;;;;4.20;1.40;;;17.40;99.90;;;;;;5092304;28;20110;-60
2022/07/07 08:48:20;;;;;;;4.43;1.60;;;17.50;99.90;;;;;;5091776;28;20103;-60
2022/07/07 08:50:46;;;;;;;5.15;1.30;;;17.60;99.90;;;;;;5091566;28;20036;-58
2022/07/07 08:53:12;;;;;;;7.85;2.38;;;17.60;99.90;;;;;;5091193;28;20028;-58
2022/07/07 08:55:41;;;;;;;4.20;1.65;;;17.60;99.90;;;;;;5091254;28;20032;-60
2022/07/07 08:58:09;;;;;;;7.22;1.58;;;17.60;99.90;;;;;;5091339;28;20027;-61
2022/07/07 09:00:34;;;;;;;3.67;1.70;;;17.60;99.90;;;;;;5090787;28;20027;-59
2022/07/07 09:03:03;;;;;;;5.72;1.40;;;17.80;99.90;;;;;;5091000;28;20028;-57
2022/07/07 09:05:33;;;;;;;6.38;1.42;;;17.90;99.90;;;;;;5091260;28;20016;-60
2022/07/07 09:07:59;;;;;;;6.78;1.80;;;18.00;99.90;;;;;;5091052;28;20018;-58
2022/07/07 09:10:33;;;;;;;3.80;1.40;;;18.10;99.90;;;;;;5090768;28;20043;-59
2022/07/07 09:12:59;;;;;;;7.35;2.05;;;18.00;99.90;;;;;;5091140;28;20506;-60
2022/07/07 09:15:25;;;;;;;4.10;2.50;;;17.90;99.90;;;;;;5090415;28;20035;-59
2022/07/07 09:17:51;;;;;;;3.80;2.42;;;17.60;99.90;;;;;;5090696;28;20561;-60
2022/07/07 09:20:17;;;;;;;3.13;1.98;;;17.40;99.90;;;;;;5090744;28;20020;-59
2022/07/07 09:22:42;;;;;;;7.45;2.75;;;17.10;99.90;;;;;;5090678;28;20024;-60
2022/07/07 09:25:08;;;;;;;5.82;2.75;;;17.00;99.90;;;;;;5091740;28;20112;-58
2022/07/07 09:27:53;;;;;;;5.03;2.40;;;17.00;99.90;;;;;;5090997;28;20050;-60
2022/07/07 09:30:33;;;;;;;6.25;2.55;;;17.00;99.90;;;;;;5091278;28;20054;-60
2022/07/07 09:33:01;;;;;;;9.00;2.38;;;17.10;99.90;;;;;;5090354;28;20032;-58
2022/07/07 09:38:14;;;;;;;6.53;2.08;;;17.10;99.90;;;;;;5090863;28;20062;-61
2022/07/07 09:40:59;;;;;;;7.15;1.55;;;17.30;99.90;;;;;;5090755;28;20016;-61
2022/07/07 09:43:26;;;;;;;5.65;1.40;;;17.50;99.90;;;;;;5090347;28;20031;-61
2022/07/07 09:46:09;;;;;;;7.65;1.55;;;17.60;99.90;;;;;;5090324;28;20020;-62
2022/07/07 09:48:37;;;;;;;4.07;1.13;;;17.50;99.90;;;;;;5090275;28;20028;-60
2022/07/07 09:51:16;;;;;;;3.20;1.30;;;17.50;99.90;;;;;;5090515;28;20533;-59
2022/07/07 09:54:10;;;;;;;7.93;1.50;;;17.50;99.90;;;;;;5090312;28;20020;-60
2022/07/07 09:56:44;;;;;;;2.80;0.95;;;17.50;99.90;;;;;;5088095;28;20028;-59
2022/07/07 09:59:22;;;;;;;7.35;1.25;;;17.40;99.90;;;;;;5074243;28;20032;-59
2022/07/07 10:01:49;;;;;;;4.50;1.13;;;17.40;99.90;;;;;;5074775;28;20066;-62
2022/07/07 10:04:25;;;;;;;4.70;1.50;;;17.40;99.90;;;;;;5089219;28;20457;-60
2022/07/07 10:06:54;;;;;;;6.85;1.00;;;17.60;99.90;;;;;;5091098;28;20102;-61
2022/07/07 10:09:21;;;;;;;1.58;0.80;;;17.80;99.90;;;;;;5090567;28;20056;-61
2022/07/07 10:11:55;;;;;;;3.88;1.00;;;18.00;99.90;;;;;;5088796;28;20021;-61
2022/07/07 10:14:21;;;;;;;5.93;1.00;;;18.20;99.90;;;;;;5098478;22;20044;-69
2022/07/07 10:16:49;;;;;;;3.67;1.05;;;18.30;99.90;;;;;;5070480;28;20119;-67
2022/07/07 10:19:25;;;;;;;6.18;0.80;;;18.30;99.90;;;;;;5070838;28;20480;-69
2022/07/07 10:21:53;;;;;;;1.65;0.73;;;18.40;99.90;;;;;;5070549;28;20406;-69
2022/07/07 10:24:20;;;;;;;3.60;0.77;;;18.40;99.90;;;;;;5070199;28;20494;-69
2022/07/07 10:26:50;;;;;;;1.20;0.65;;;18.40;99.90;;;;;;5070635;28;20017;-69
2022/07/07 10:29:16;;;;;;;2.53;0.80;;;18.50;99.90;;;;;;5070741;28;20029;-66
2022/07/07 10:31:50;;;;;;;2.97;1.00;;;18.60;99.90;;;;;;5069416;28;20036;-68
2022/07/07 10:34:16;;;;;;;2.78;0.95;;;18.70;99.90;;;;;;5070414;28;20398;-69
2022/07/07 10:36:51;;;;;;;3.45;0.60;;;18.90;99.90;;;;;;5070615;28;20024;-68
2022/07/07 10:39:20;;;;;;;3.20;0.80;;;18.90;99.90;;;;;;5070672;28;20024;-69
2022/07/07 10:42:06;;;;;;;5.32;1.13;;;19.00;99.90;;;;;;5070097;28;20021;-68
2022/07/07 10:44:33;;;;;;;2.08;0.80;;;19.20;99.90;;;;;;5070005;28;20509;-69
2022/07/07 10:47:13;;;;;;;2.45;1.00;;;19.20;99.90;;;;;;5070172;28;20040;-66
2022/07/07 10:49:46;;;;;;;2.95;0.85;;;19.20;99.90;;;;;;5069806;28;20139;-66
2022/07/07 10:52:18;;;;;;;3.85;0.98;;;19.20;99.90;;;;;;5068717;28;20024;-66
2022/07/07 10:55:04;;;;;;;2.05;0.80;;;19.20;99.90;;;;;;5069558;28;20025;-67
2022/07/07 10:57:41;;;;;;;2.20;1.17;;;19.10;99.90;;;;;;5069623;28;20497;-67
2022/07/07 11:00:26;;;;;;;2.92;0.80;;;19.00;99.90;;;;;;5070203;28;20020;-67
2022/07/07 11:02:57;;;;;;;2.45;1.00;;;18.90;99.90;;;;;;5069905;28;20073;-67
2022/07/07 11:05:29;;;;;;;1.95;0.82;;;19.10;99.90;;;;;;5069435;28;20103;-67
2022/07/07 11:07:58;;;;;;;2.30;0.82;;;19.20;99.90;;;;;;5069940;28;20359;-67
2022/07/07 11:10:44;;;;;;;2.85;1.08;;;19.30;99.90;;;;;;5049714;28;20025;-67
2022/07/07 11:13:23;;;;;;;1.95;0.82;;;19.30;99.90;;;;;;5049379;28;20083;-67
2022/07/07 11:16:08;;;;;;;5.47;0.98;;;19.30;99.90;;;;;;5052601;28;20040;-67
2022/07/07 11:18:34;;;;;;;1.83;0.80;;;19.60;99.90;;;;;;5050026;28;20518;-67
2022/07/07 11:21:03;;;;;;;2.08;0.75;;;19.90;99.90;;;;;;5049537;28;20031;-67
2022/07/07 11:23:43;;;;;;;4.43;1.00;;;20.00;99.90;;;;;;5058630;28;20375;-67
2022/07/07 11:26:10;;;;;;;1.83;0.80;;;19.90;99.90;;;;;;5074323;28;20029;-68
2022/07/07 11:28:36;;;;;;;2.90;1.00;;;19.80;99.90;;;;;;5073726;28;20023;-68
2022/07/07 11:31:05;;;;;;;3.40;1.23;;;19.60;99.90;;;;;;5073712;28;20063;-67
2022/07/07 11:33:30;;;;;;;7.85;1.45;;;19.30;99.90;;;;;;5073296;28;20383;-67
2022/07/07 11:35:56;;;;;;;5.65;1.42;;;19.00;99.90;;;;;;5073722;28;20023;-68
2022/07/07 11:38:27;;;;;;;6.32;1.40;;;18.70;99.90;;;;;;5073409;28;20028;-67
2022/07/07 11:40:52;;;;;;;1.95;1.00;;;18.40;99.90;;;;;;5073541;28;20027;-68
2022/07/07 11:43:22;;;;;;;5.78;1.13;;;18.30;99.90;;;;;;5073302;28;20033;-68
2022/07/07 11:45:48;;;;;;;2.67;1.25;;;18.10;99.90;;;;;;5073560;28;20020;-68
2022/07/07 11:48:13;;;;;;;3.95;0.93;;;18.10;99.90;;;;;;5073090;28;20141;-67
2022/07/07 11:50:40;;;;;;;3.85;0.90;;;18.00;99.90;;;;;;5072971;28;20024;-68
2022/07/07 11:53:06;;;;;;;1.38;0.80;;;18.00;99.90;;;;;;5072818;28;20792;-67
2022/07/07 11:55:31;;;;;;;3.42;1.30;;;18.20;99.90;;;;;;5073139;28;20025;-67
2022/07/07 11:58:02;;;;;;;3.17;0.85;;;18.40;99.90;;;;;;5072616;28;20070;-68
2022/07/07 12:00:30;;;;;;;2.92;1.10;;;18.70;99.90;;;;;;5072776;28;20035;-68
2022/07/07 12:02:57;;;;;;;1.88;0.95;;;19.10;99.90;;;;;;5071788;28;20115;-67
2022/07/07 12:05:26;;;;;;;2.03;0.80;;;19.30;99.90;;;;;;5070672;28;20028;-67
2022/07/07 12:07:59;;;;;;;4.55;1.00;;;19.50;99.90;;;;;;5073189;28;20052;-67
2022/07/07 12:10:36;;;;;;;3.50;1.37;;;19.60;99.90;;;;;;5073136;28;20032;-68
2022/07/07 12:13:08;;;;;;;13.68;1.10;;;19.50;99.90;;;;;;5072944;28;20036;-68
2022/07/07 12:15:40;;;;;;;2.25;1.00;;;19.40;99.90;;;;;;5072994;28;20036;-68
2022/07/07 12:18:07;;;;;;;3.95;0.80;;;19.40;99.90;;;;;;5073022;28;20360;-67
2022/07/07 12:20:34;;;;;;;3.15;1.00;;;19.30;99.90;;;;;;5072799;28;20498;-68
2022/07/07 12:23:02;;;;;;;5.25;1.73;;;19.20;99.90;;;;;;5071429;28;20024;-67
2022/07/07 12:25:30;;;;;;;2.40;1.00;;;19.20;99.90;;;;;;5072327;28;20040;-67
2022/07/07 12:28:00;;;;;;;2.65;1.30;;;19.20;99.90;;;;;;5072776;28;20029;-67
2022/07/07 12:30:29;;;;;;;5.10;1.20;;;19.20;99.90;;;;;;5072807;28;20020;-68
2022/07/07 12:32:55;;;;;;;2.20;0.77;;;19.20;99.90;;;;;;5070820;28;20025;-68
2022/07/07 12:35:37;;;;;;;3.30;1.30;;;19.40;99.90;;;;;;5070136;28;20028;-68
2022/07/07 12:38:05;;;;;;;3.67;1.30;;;19.60;99.90;;;;;;5072231;28;20395;-68
2022/07/07 12:40:33;;;;;;;3.90;1.15;;;19.70;99.90;;;;;;5072480;28;20023;-67
2022/07/07 12:43:07;;;;;;;3.05;1.35;;;19.60;99.90;;;;;;5054742;28;20722;-68
2022/07/07 12:45:33;;;;;;;4.70;1.20;;;19.70;99.90;;;;;;5072513;28;20475;-68
2022/07/07 12:47:59;;;;;;;4.55;1.38;;;19.80;99.90;;;;;;5072000;28;20040;-68
2022/07/07 12:50:25;;;;;;;3.47;1.70;;;19.90;99.90;;;;;;5072064;28;20024;-67